Sakura — JG5711 — position and weather

sailwx.info

Track history (hours):
 
Tides and Currents Weather Stations Pressure Air Temp Water Temp Dewpoint Dewpoint Depression Visibility Wind Speed Wind Dir Waves Ship Positions

Sakura

Last reported at 2014-Sep-29 23:32 UTC. Time now 2014-Sep-30 18:06 UTC.
Position N 35°27' E 139°40'.

Length 32 m; draft 3.6 m.

Type: Tug. MMSI: 431101178.

Date/timePositionNaut miles runAvg speedWind from/ knotsBaromVisibWave heightAir tempDewpointWater temp
2014-Sep-29 23:32N 35°27' E 139°40'4 3.8
2014-Sep-29 22:34N 35°29' E 139°43'1 1.3
2014-Sep-29 21:33N 35°28' E 139°42'1 1.4
2014-Sep-29 20:33N 35°27' E 139°43'0 0.0
2014-Sep-29 19:33N 35°27' E 139°43'0 0.0
2014-Sep-29 18:33N 35°27' E 139°43'0 0.0
2014-Sep-29 17:33N 35°27' E 139°43'0 0.0
2014-Sep-29 16:33N 35°27' E 139°43'0 0.0
2014-Sep-29 15:33N 35°27' E 139°43'1 1.2
2014-Sep-29 14:33N 35°28' E 139°41'2 1.6
2014-Sep-29 13:33N 35°27' E 139°39'0 0.0
2014-Sep-29 12:33N 35°27' E 139°39'0 0.0
2014-Sep-29 11:33N 35°27' E 139°39'0 0.0
2014-Sep-29 10:33N 35°27' E 139°39'0 0.0
2014-Sep-29 09:33N 35°27' E 139°39'0 0.2
2014-Sep-29 08:33N 35°27' E 139°39'0 0.0
2014-Sep-27 08:29N 35°27' E 139°40'0 0.0
2014-Sep-27 07:33N 35°27' E 139°40'0 0.2
2014-Sep-27 06:33N 35°27' E 139°39'0 0.0
2014-Sep-27 05:33N 35°27' E 139°39'0 0.0
2014-Sep-27 04:33N 35°27' E 139°39'1 0.8
2014-Sep-27 03:33N 35°27' E 139°40'4 3.7
2014-Sep-27 02:33N 35°28' E 139°45'1 0.8
2014-Sep-27 01:33N 35°29' E 139°44'0 0.0
2014-Sep-27 00:33N 35°29' E 139°44'0 0.0
2014-Sep-26 23:33N 35°29' E 139°44'2 1.6
2014-Sep-26 22:33N 35°27' E 139°45'4 4.2
2014-Sep-26 21:33N 35°27' E 139°40'0 0.0
2014-Sep-26 00:05N 35°27' E 139°40'4 8.4
2014-Sep-25 23:33N 35°28' E 139°45'2 2.5
2014-Sep-25 22:34N 35°29' E 139°48'5 4.8
2014-Sep-25 21:34N 35°26' E 139°43'0 0.0
2014-Sep-25 20:34N 35°26' E 139°43'0 0.0
2014-Sep-25 19:34N 35°26' E 139°43'2 1.9
2014-Sep-25 18:34N 35°27' E 139°41'6 5.7
2014-Sep-25 17:33N 35°30' E 139°47'2 2.1
2014-Sep-25 16:33N 35°28' E 139°45'3 3.0
2014-Sep-25 15:33N 35°27' E 139°42'2 1.9
2014-Sep-25 14:34N 35°27' E 139°39'0 0.0
2014-Sep-25 13:34N 35°27' E 139°39'0 0.0
2014-Sep-25 12:33N 35°27' E 139°39'0 0.0
2014-Sep-25 11:34N 35°27' E 139°39'0 0.0
2014-Sep-25 10:34N 35°27' E 139°39'1 1.0
2014-Sep-25 09:33N 35°26' E 139°40'1 0.8
2014-Sep-25 08:33N 35°27' E 139°40'0 0.0
2014-Sep-25 07:33N 35°27' E 139°40'0 0.0
2014-Sep-25 06:33N 35°27' E 139°40'0 0.0
2014-Sep-25 05:33N 35°27' E 139°40'0 0.0
2014-Sep-25 04:33N 35°27' E 139°40'0 0.0
2014-Sep-25 03:33N 35°27' E 139°40'0 0.0
2014-Sep-25 02:33N 35°27' E 139°40'0 0.0
2014-Sep-25 01:33N 35°27' E 139°40'0 0.0
2014-Sep-25 00:33N 35°27' E 139°40'0 0.0
2014-Sep-24 23:33N 35°27' E 139°40'0 0.0
2014-Sep-24 22:33N 35°27' E 139°40'  
2014-Sep-22 11:34N 35°27' E 139°41'1 1.1
2014-Sep-22 10:33N 35°26' E 139°42'0 0.0
2014-Sep-22 09:33N 35°26' E 139°42'0 0.0
2014-Sep-22 08:33N 35°26' E 139°42'1 1.5
2014-Sep-22 07:33N 35°27' E 139°41'1 0.7
2014-Sep-22 06:33N 35°28' E 139°40'0 0.0
2014-Sep-22 05:33N 35°28' E 139°40'0 0.0
2014-Sep-22 04:33N 35°28' E 139°40'0 0.0
2014-Sep-22 03:33N 35°28' E 139°40'0 0.0
2014-Sep-22 02:33N 35°28' E 139°40'0 0.0
2014-Sep-22 01:33N 35°28' E 139°40'0 0.0
2014-Sep-22 00:34N 35°28' E 139°40'0 0.0
2014-Sep-21 23:34N 35°28' E 139°40'1 0.7
2014-Sep-21 22:34N 35°27' E 139°41'1 1.1
2014-Sep-21 21:34N 35°27' E 139°40'0 0.0
2014-Sep-20 09:33N 35°27' E 139°40'3 2.5
2014-Sep-20 08:33N 35°27' E 139°43'1 1.1
2014-Sep-20 07:34N 35°26' E 139°43'2 1.8
2014-Sep-20 06:34N 35°27' E 139°40'4 4.1
2014-Sep-20 05:34N 35°27' E 139°45'3 3.1
2014-Sep-20 04:33N 35°29' E 139°47'2 1.5
2014-Sep-20 03:34N 35°31' E 139°46'4 3.7
2014-Sep-20 02:34N 35°28' E 139°44'3 2.7
2014-Sep-20 01:33N 35°28' E 139°41'0 0.0
2014-Sep-20 00:33N 35°28' E 139°41'0 0.0
2014-Sep-19 23:33N 35°28' E 139°41'  
Track history (hours):
 
Tides and Currents Weather Stations Pressure Air Temp Water Temp Dewpoint Dewpoint Depression Visibility Wind Speed Wind Dir Waves Ship Positions

Sakura

Last reported at 2014-Sep-29 23:32 UTC. Time now 2014-Sep-30 18:06 UTC.
Position N 35°27' E 139°40'.

Length 32 m; draft 3.6 m.

Type: Tug. MMSI: 431101178.

Date/timePositionNaut miles runAvg speedWind from/ knotsBaromVisibWave heightAir tempDewpointWater temp
2014-Sep-29 23:32N 35°27' E 139°40'4 3.8
2014-Sep-29 22:34N 35°29' E 139°43'1 1.3
2014-Sep-29 21:33N 35°28' E 139°42'1 1.4
2014-Sep-29 20:33N 35°27' E 139°43'0 0.0
2014-Sep-29 19:33N 35°27' E 139°43'0 0.0
2014-Sep-29 18:33N 35°27' E 139°43'0 0.0
2014-Sep-29 17:33N 35°27' E 139°43'0 0.0
2014-Sep-29 16:33N 35°27' E 139°43'0 0.0
2014-Sep-29 15:33N 35°27' E 139°43'1 1.2
2014-Sep-29 14:33N 35°28' E 139°41'2 1.6
2014-Sep-29 13:33N 35°27' E 139°39'0 0.0
2014-Sep-29 12:33N 35°27' E 139°39'0 0.0
2014-Sep-29 11:33N 35°27' E 139°39'0 0.0
2014-Sep-29 10:33N 35°27' E 139°39'0 0.0
2014-Sep-29 09:33N 35°27' E 139°39'0 0.2
2014-Sep-29 08:33N 35°27' E 139°39'0 0.0
2014-Sep-27 08:29N 35°27' E 139°40'0 0.0
2014-Sep-27 07:33N 35°27' E 139°40'0 0.2
2014-Sep-27 06:33N 35°27' E 139°39'0 0.0
2014-Sep-27 05:33N 35°27' E 139°39'0 0.0
2014-Sep-27 04:33N 35°27' E 139°39'1 0.8
2014-Sep-27 03:33N 35°27' E 139°40'4 3.7
2014-Sep-27 02:33N 35°28' E 139°45'1 0.8
2014-Sep-27 01:33N 35°29' E 139°44'0 0.0
2014-Sep-27 00:33N 35°29' E 139°44'0 0.0
2014-Sep-26 23:33N 35°29' E 139°44'2 1.6
2014-Sep-26 22:33N 35°27' E 139°45'4 4.2
2014-Sep-26 21:33N 35°27' E 139°40'0 0.0
2014-Sep-26 00:05N 35°27' E 139°40'4 8.4
2014-Sep-25 23:33N 35°28' E 139°45'2 2.5
2014-Sep-25 22:34N 35°29' E 139°48'5 4.8
2014-Sep-25 21:34N 35°26' E 139°43'0 0.0
2014-Sep-25 20:34N 35°26' E 139°43'0 0.0
2014-Sep-25 19:34N 35°26' E 139°43'2 1.9
2014-Sep-25 18:34N 35°27' E 139°41'6 5.7
2014-Sep-25 17:33N 35°30' E 139°47'2 2.1
2014-Sep-25 16:33N 35°28' E 139°45'3 3.0
2014-Sep-25 15:33N 35°27' E 139°42'2 1.9
2014-Sep-25 14:34N 35°27' E 139°39'0 0.0
2014-Sep-25 13:34N 35°27' E 139°39'0 0.0
2014-Sep-25 12:33N 35°27' E 139°39'0 0.0
2014-Sep-25 11:34N 35°27' E 139°39'0 0.0
2014-Sep-25 10:34N 35°27' E 139°39'1 1.0
2014-Sep-25 09:33N 35°26' E 139°40'1 0.8
2014-Sep-25 08:33N 35°27' E 139°40'0 0.0
2014-Sep-25 07:33N 35°27' E 139°40'0 0.0
2014-Sep-25 06:33N 35°27' E 139°40'0 0.0
2014-Sep-25 05:33N 35°27' E 139°40'0 0.0
2014-Sep-25 04:33N 35°27' E 139°40'0 0.0
2014-Sep-25 03:33N 35°27' E 139°40'0 0.0
2014-Sep-25 02:33N 35°27' E 139°40'0 0.0
2014-Sep-25 01:33N 35°27' E 139°40'0 0.0
2014-Sep-25 00:33N 35°27' E 139°40'0 0.0
2014-Sep-24 23:33N 35°27' E 139°40'0 0.0
2014-Sep-24 22:33N 35°27' E 139°40'  
2014-Sep-22 11:34N 35°27' E 139°41'1 1.1
2014-Sep-22 10:33N 35°26' E 139°42'0 0.0
2014-Sep-22 09:33N 35°26' E 139°42'0 0.0
2014-Sep-22 08:33N 35°26' E 139°42'1 1.5
2014-Sep-22 07:33N 35°27' E 139°41'1 0.7
2014-Sep-22 06:33N 35°28' E 139°40'0 0.0
2014-Sep-22 05:33N 35°28' E 139°40'0 0.0
2014-Sep-22 04:33N 35°28' E 139°40'0 0.0
2014-Sep-22 03:33N 35°28' E 139°40'0 0.0
2014-Sep-22 02:33N 35°28' E 139°40'0 0.0
2014-Sep-22 01:33N 35°28' E 139°40'0 0.0
2014-Sep-22 00:34N 35°28' E 139°40'0 0.0
2014-Sep-21 23:34N 35°28' E 139°40'1 0.7
2014-Sep-21 22:34N 35°27' E 139°41'1 1.1
2014-Sep-21 21:34N 35°27' E 139°40'0 0.0
2014-Sep-20 09:33N 35°27' E 139°40'3 2.5
2014-Sep-20 08:33N 35°27' E 139°43'1 1.1
2014-Sep-20 07:34N 35°26' E 139°43'2 1.8
2014-Sep-20 06:34N 35°27' E 139°40'4 4.1
2014-Sep-20 05:34N 35°27' E 139°45'3 3.1
2014-Sep-20 04:33N 35°29' E 139°47'2 1.5
2014-Sep-20 03:34N 35°31' E 139°46'4 3.7
2014-Sep-20 02:34N 35°28' E 139°44'3 2.7
2014-Sep-20 01:33N 35°28' E 139°41'0 0.0
2014-Sep-20 00:33N 35°28' E 139°41'0 0.0
2014-Sep-19 23:33N 35°28' E 139°41'  

Dump ship's entire track history